createdAt,value
2023-11-13T00:03:05.074Z,100.00
2023-11-13T00:06:14.466Z,100.00
2023-11-13T00:09:25.272Z,100.00
2023-11-13T00:12:35.672Z,100.00
2023-11-13T00:15:44.387Z,100.00
2023-11-13T00:18:53.754Z,100.00
2023-11-13T00:22:03.441Z,100.00
2023-11-13T00:25:13.685Z,100.00
2023-11-13T00:28:22.671Z,100.00
2023-11-13T00:31:31.450Z,100.00
2023-11-13T00:34:40.104Z,100.00
2023-11-13T00:37:48.629Z,100.00
2023-11-13T00:41:03.086Z,100.00
2023-11-13T00:44:12.069Z,100.00
2023-11-13T00:47:20.669Z,100.00
2023-11-13T00:50:29.456Z,100.00
2023-11-13T00:53:40.254Z,100.00
2023-11-13T00:56:50.527Z,100.00
2023-11-13T01:00:04.369Z,100.00
2023-11-13T01:03:13.246Z,100.00
2023-11-13T01:06:22.016Z,100.00
2023-11-13T01:09:30.616Z,100.00
2023-11-13T01:12:41.082Z,100.00
2023-11-13T01:15:50.429Z,100.00
2023-11-13T01:18:59.204Z,100.00
2023-11-13T01:22:08.248Z,100.00
2023-11-13T01:25:16.934Z,100.00
2023-11-13T01:28:27.455Z,100.00
2023-11-13T01:31:36.132Z,100.00
2023-11-13T01:34:45.209Z,100.00
2023-11-13T01:37:53.853Z,100.00
2023-11-13T01:41:02.611Z,100.00
2023-11-13T01:44:12.521Z,100.00
2023-11-13T01:47:21.186Z,100.00
2023-11-13T01:50:29.933Z,100.00
2023-11-13T01:53:39.535Z,100.00
2023-11-13T01:56:48.956Z,100.00
2023-11-13T02:00:01.029Z,100.00
2023-11-13T02:03:10.811Z,100.00
2023-11-13T02:06:19.461Z,100.00
2023-11-13T02:09:28.434Z,100.00
2023-11-13T02:12:38.234Z,100.00
2023-11-13T02:15:49.968Z,100.00
2023-11-13T02:18:58.982Z,100.00
2023-11-13T02:22:08.121Z,100.00
2023-11-13T02:25:23.845Z,100.00
2023-11-13T02:28:32.464Z,100.00
2023-11-13T02:31:52.750Z,100.00
2023-11-13T02:35:02.283Z,100.00
2023-11-13T02:38:11.908Z,100.00
2023-11-13T02:41:22.880Z,100.00
2023-11-13T02:44:31.500Z,100.00
2023-11-13T02:47:40.251Z,100.00
2023-11-13T02:50:52.519Z,100.00
2023-11-13T02:54:05.668Z,100.00
2023-11-13T02:57:15.583Z,100.00
2023-11-13T03:00:24.472Z,100.00
2023-11-13T03:03:33.080Z,100.00
2023-11-13T03:06:42.087Z,100.00
2023-11-13T03:09:52.123Z,100.00
2023-11-13T03:13:02.177Z,100.00
2023-11-13T03:16:14.403Z,100.00
2023-11-13T03:19:23.317Z,100.00
2023-11-13T03:22:31.958Z,100.00
2023-11-13T03:25:40.782Z,100.00
2023-11-13T03:28:51.525Z,100.00
2023-11-13T03:32:00.414Z,100.00
2023-11-13T03:35:09.495Z,100.00
2023-11-13T03:38:19.584Z,100.00
2023-11-13T03:41:28.281Z,100.00
2023-11-13T03:44:38.300Z,100.00
2023-11-13T03:47:46.928Z,100.00
2023-11-13T03:50:55.681Z,100.00
2023-11-13T03:54:05.129Z,100.00
2023-11-13T03:57:13.977Z,100.00
2023-11-13T04:00:24.965Z,100.00
2023-11-13T04:03:33.540Z,100.00
2023-11-13T04:06:42.665Z,100.00
2023-11-13T04:09:51.454Z,100.00
2023-11-13T04:13:00.266Z,100.00
2023-11-13T04:16:10.602Z,100.00
2023-11-13T04:19:19.288Z,100.00
2023-11-13T04:22:29.043Z,100.00
2023-11-13T04:25:37.636Z,100.00
2023-11-13T04:28:46.278Z,100.00
2023-11-13T04:31:56.188Z,100.00
2023-11-13T04:35:05.167Z,100.00
2023-11-13T04:38:13.686Z,100.00
2023-11-13T04:41:22.303Z,100.00
2023-11-13T04:44:30.868Z,100.00
2023-11-13T04:47:40.842Z,100.00
2023-11-13T04:50:49.594Z,100.00
2023-11-13T04:53:58.688Z,100.00
2023-11-13T04:57:07.477Z,100.00
2023-11-13T05:00:16.976Z,100.00
2023-11-13T05:03:26.845Z,100.00
2023-11-13T05:06:36.319Z,100.00
2023-11-13T05:09:46.878Z,100.00
2023-11-13T05:13:01.543Z,100.00
2023-11-13T05:16:10.253Z,100.00
2023-11-13T05:19:21.091Z,100.00
2023-11-13T05:22:29.728Z,100.00
2023-11-13T05:25:38.542Z,100.00
2023-11-13T05:28:47.502Z,100.00
2023-11-13T05:31:58.650Z,100.00
2023-11-13T05:35:09.349Z,100.00
2023-11-13T05:38:18.204Z,100.00
2023-11-13T05:41:27.142Z,99.03
2023-11-13T05:44:38.242Z,99.72
2023-11-13T05:47:47.855Z,98.38
2023-11-13T05:50:58.278Z,98.31
2023-11-13T05:54:07.981Z,97.83
2023-11-13T05:57:16.718Z,97.45
2023-11-13T06:00:25.551Z,98.04
2023-11-13T06:03:34.399Z,97.44
2023-11-13T06:06:47.200Z,95.89
2023-11-13T06:09:56.861Z,95.33
2023-11-13T06:13:07.719Z,95.64
2023-11-13T06:16:18.137Z,94.73
2023-11-13T06:19:27.040Z,93.73
2023-11-13T06:22:37.100Z,93.87
2023-11-13T06:25:47.061Z,93.21
2023-11-13T06:28:55.832Z,92.42
2023-11-13T06:32:04.890Z,92.73
2023-11-13T06:35:14.000Z,93.09
2023-11-13T06:38:24.708Z,93.69
2023-11-13T06:41:33.645Z,92.46
2023-11-13T06:44:42.771Z,92.79
2023-11-13T06:47:52.746Z,92.58
2023-11-13T06:51:02.392Z,92.50
2023-11-13T06:54:12.631Z,92.27
2023-11-13T06:57:22.080Z,92.12
2023-11-13T07:00:31.233Z,92.80
2023-11-13T07:03:39.978Z,91.90
2023-11-13T07:06:49.407Z,91.97
2023-11-13T07:10:02.528Z,91.77
2023-11-13T07:13:12.577Z,91.12
2023-11-13T07:16:22.096Z,91.27
2023-11-13T07:19:35.743Z,89.73
2023-11-13T07:22:45.076Z,89.22
2023-11-13T07:25:55.998Z,88.74
2023-11-13T07:29:05.510Z,89.33
2023-11-13T07:32:14.258Z,88.09
2023-11-13T07:35:23.373Z,88.77
2023-11-13T07:38:32.388Z,87.92
2023-11-13T07:41:42.487Z,88.10
2023-11-13T07:44:53.560Z,87.48
2023-11-13T07:48:02.993Z,87.26
2023-11-13T07:51:11.759Z,88.13
2023-11-13T07:54:20.461Z,87.57
2023-11-13T07:57:30.385Z,87.47
2023-11-13T08:00:38.903Z,88.61
2023-11-13T08:03:48.936Z,89.48
2023-11-13T08:06:57.650Z,89.28
2023-11-13T08:10:10.009Z,89.01
2023-11-13T08:13:20.514Z,88.09
2023-11-13T08:16:29.474Z,87.36
2023-11-13T08:19:39.277Z,88.34
2023-11-13T08:22:49.538Z,86.66
2023-11-13T08:26:01.309Z,88.05
2023-11-13T08:29:12.882Z,87.33
2023-11-13T08:32:21.744Z,88.72
2023-11-13T08:35:32.298Z,89.41
2023-11-13T08:38:40.923Z,90.06
2023-11-13T08:41:49.505Z,91.60
2023-11-13T08:45:02.187Z,92.42
2023-11-13T08:48:12.104Z,93.55
2023-11-13T08:51:25.461Z,94.00
2023-11-13T08:54:34.034Z,95.26
2023-11-13T08:57:46.142Z,95.65
2023-11-13T09:00:56.041Z,96.48
2023-11-13T09:04:08.011Z,97.02
2023-11-13T09:07:18.508Z,97.43
2023-11-13T09:10:29.073Z,97.13
2023-11-13T09:13:38.126Z,97.45
2023-11-13T09:16:49.016Z,97.75
2023-11-13T09:19:57.635Z,97.57
2023-11-13T09:23:06.415Z,97.87
2023-11-13T09:26:15.023Z,98.38
2023-11-13T09:29:24.209Z,97.44
2023-11-13T09:32:34.158Z,97.67
2023-11-13T09:35:42.685Z,97.87
2023-11-13T09:38:54.821Z,98.51
2023-11-13T09:42:06.126Z,97.84
2023-11-13T09:45:16.566Z,99.26
2023-11-13T09:48:31.629Z,100.00
2023-11-13T09:51:42.200Z,99.32
2023-11-13T09:54:50.953Z,99.84
2023-11-13T09:58:02.241Z,100.00
2023-11-13T10:01:15.267Z,99.26
2023-11-13T10:04:25.675Z,98.94
2023-11-13T10:07:34.370Z,98.90
2023-11-13T10:10:44.101Z,98.45
2023-11-13T10:13:53.234Z,99.69
2023-11-13T10:17:02.658Z,99.30
2023-11-13T10:20:18.229Z,98.14
2023-11-13T10:23:36.071Z,97.53
2023-11-13T10:26:49.614Z,97.54
2023-11-13T10:30:05.325Z,97.89
2023-11-13T10:33:16.904Z,97.68
2023-11-13T10:36:29.412Z,98.31
2023-11-13T10:39:42.441Z,97.91
2023-11-13T10:42:51.872Z,98.36
2023-11-13T10:46:01.607Z,98.61
2023-11-13T10:49:13.390Z,98.94
2023-11-13T10:52:24.289Z,99.72
2023-11-13T10:55:33.793Z,98.66
2023-11-13T10:58:43.337Z,99.18
2023-11-13T11:01:57.150Z,99.73
2023-11-13T11:05:12.257Z,99.92
2023-11-13T11:08:23.057Z,99.22
2023-11-13T11:11:35.598Z,99.54
2023-11-13T11:14:52.387Z,99.40
2023-11-13T11:18:10.962Z,98.62
2023-11-13T11:21:36.850Z,98.77
2023-11-13T11:25:17.923Z,97.72
2023-11-13T11:28:49.271Z,98.17
2023-11-13T11:31:57.836Z,98.05
2023-11-13T11:35:07.541Z,98.43
2023-11-13T11:38:22.072Z,99.03
2023-11-13T11:41:45.021Z,99.62
2023-11-13T11:45:03.495Z,99.18
2023-11-13T11:48:13.200Z,99.15
2023-11-13T11:51:25.391Z,98.29
2023-11-13T11:54:35.558Z,97.94
2023-11-13T11:57:49.447Z,97.92
2023-11-13T12:00:58.373Z,97.56
2023-11-13T12:04:07.890Z,97.70
2023-11-13T12:07:17.177Z,98.69
2023-11-13T12:10:27.117Z,98.33
2023-11-13T12:13:37.003Z,98.58
2023-11-13T12:16:45.952Z,97.64
2023-11-13T12:20:03.548Z,97.28
2023-11-13T12:23:18.883Z,97.55
2023-11-13T12:26:27.499Z,98.10
2023-11-13T12:29:38.446Z,97.84
2023-11-13T12:32:47.916Z,97.50
2023-11-13T12:35:59.882Z,97.74
2023-11-13T12:39:08.609Z,97.33
2023-11-13T12:42:17.965Z,97.30
2023-11-13T12:45:28.311Z,96.83
2023-11-13T12:48:38.027Z,95.82
2023-11-13T12:51:49.071Z,95.87
2023-11-13T12:54:58.258Z,95.66
2023-11-13T12:58:07.907Z,95.95
2023-11-13T13:01:19.421Z,95.82
2023-11-13T13:04:29.300Z,95.89
2023-11-13T13:07:40.209Z,96.32
2023-11-13T13:10:52.416Z,97.34
2023-11-13T13:14:02.984Z,97.07
2023-11-13T13:17:16.552Z,98.03
2023-11-13T13:20:31.805Z,98.47
2023-11-13T13:23:42.086Z,98.64
2023-11-13T13:26:50.645Z,98.54
2023-11-13T13:29:59.257Z,98.09
2023-11-13T13:33:12.638Z,99.19
2023-11-13T13:36:21.950Z,99.31
2023-11-13T13:39:32.771Z,98.09
2023-11-13T13:42:42.641Z,98.98
2023-11-13T13:45:54.933Z,98.47
2023-11-13T13:49:06.609Z,98.42
2023-11-13T13:52:16.977Z,99.12
2023-11-13T13:55:29.042Z,98.56
2023-11-13T13:58:39.316Z,99.03
2023-11-13T14:01:49.367Z,99.47
2023-11-13T14:04:59.950Z,100.00
2023-11-13T14:08:16.463Z,99.73
2023-11-13T14:11:32.823Z,99.94
2023-11-13T14:14:48.644Z,99.76
2023-11-13T14:17:57.207Z,100.00
2023-11-13T14:21:10.628Z,100.00
2023-11-13T14:24:21.916Z,100.00
2023-11-13T14:27:31.160Z,99.76
2023-11-13T14:30:40.196Z,99.86
2023-11-13T14:33:49.527Z,99.94
2023-11-13T14:36:59.785Z,100.00
2023-11-13T14:40:11.005Z,100.00
2023-11-13T14:43:21.455Z,100.00
2023-11-13T14:46:31.215Z,100.00
2023-11-13T14:49:39.803Z,100.00
2023-11-13T14:52:52.018Z,100.00
2023-11-13T14:56:00.533Z,100.00
2023-11-13T14:59:11.635Z,100.00
2023-11-13T15:02:20.201Z,100.00
2023-11-13T15:05:28.715Z,100.00
2023-11-13T15:08:38.644Z,100.00
2023-11-13T15:11:48.683Z,99.53
2023-11-13T15:15:01.338Z,99.34
2023-11-13T15:18:10.145Z,99.44
2023-11-13T15:21:19.300Z,98.54
2023-11-13T15:24:29.464Z,97.29
2023-11-13T15:27:38.507Z,98.11
2023-11-13T15:30:48.109Z,98.52
2023-11-13T15:33:56.654Z,98.14
2023-11-13T15:37:06.383Z,97.88
2023-11-13T15:40:17.454Z,98.18
2023-11-13T15:43:26.068Z,98.89
2023-11-13T15:46:34.621Z,97.98
2023-11-13T15:49:43.285Z,98.87
2023-11-13T15:52:52.060Z,98.88
2023-11-13T15:56:02.652Z,98.56
2023-11-13T15:59:11.206Z,99.44
2023-11-13T16:02:19.877Z,99.16
2023-11-13T16:05:28.668Z,98.80
2023-11-13T16:08:37.366Z,98.40
2023-11-13T16:11:47.488Z,97.95
2023-11-13T16:14:57.673Z,97.60
2023-11-13T16:18:06.480Z,97.63
2023-11-13T16:21:18.524Z,97.90
2023-11-13T16:24:27.294Z,96.57
2023-11-13T16:27:38.980Z,97.45
2023-11-13T16:30:47.641Z,96.88
2023-11-13T16:33:56.407Z,97.34
2023-11-13T16:37:05.258Z,97.12
2023-11-13T16:40:15.371Z,97.63
2023-11-13T16:43:25.530Z,97.24
2023-11-13T16:46:35.165Z,96.93
2023-11-13T16:49:44.695Z,97.42
2023-11-13T16:52:54.347Z,97.29
2023-11-13T16:56:03.417Z,96.73
2023-11-13T16:59:13.259Z,96.35
2023-11-13T17:02:23.000Z,96.45
2023-11-13T17:05:34.715Z,95.24
2023-11-13T17:08:43.786Z,94.23
2023-11-13T17:11:53.221Z,94.35
2023-11-13T17:15:03.109Z,93.17
2023-11-13T17:18:12.522Z,93.74
2023-11-13T17:21:21.806Z,93.06
2023-11-13T17:24:30.811Z,91.69
2023-11-13T17:27:40.211Z,92.49
2023-11-13T17:30:50.207Z,91.99
2023-11-13T17:33:58.741Z,91.39
2023-11-13T17:37:07.388Z,91.08
2023-11-13T17:40:18.360Z,92.31
2023-11-13T17:43:27.473Z,91.50
2023-11-13T17:46:38.324Z,90.00
2023-11-13T17:49:47.962Z,90.39
2023-11-13T17:52:56.585Z,90.57
2023-11-13T17:56:06.353Z,91.31
2023-11-13T17:59:15.423Z,91.77
2023-11-13T18:02:26.491Z,93.77
2023-11-13T18:05:35.145Z,94.60
2023-11-13T18:08:43.704Z,95.23
2023-11-13T18:11:53.295Z,95.52
2023-11-13T18:15:02.898Z,95.10
2023-11-13T18:18:13.212Z,95.33
2023-11-13T18:21:21.813Z,96.55
2023-11-13T18:24:30.377Z,96.61
2023-11-13T18:27:39.253Z,96.90
2023-11-13T18:30:49.479Z,96.64
2023-11-13T18:34:00.557Z,95.42
2023-11-13T18:37:09.045Z,95.91
2023-11-13T18:40:18.477Z,93.67
2023-11-13T18:43:27.367Z,92.63
2023-11-13T18:46:35.989Z,91.68
2023-11-13T18:49:47.015Z,90.20
2023-11-13T18:52:55.945Z,89.41
2023-11-13T18:56:04.691Z,88.48
2023-11-13T18:59:17.763Z,87.58
2023-11-13T19:02:27.849Z,88.19
2023-11-13T19:05:37.986Z,86.50
2023-11-13T19:08:46.783Z,86.95
2023-11-13T19:11:56.358Z,85.87
2023-11-13T19:15:05.388Z,86.04
2023-11-13T19:18:14.360Z,85.80
2023-11-13T19:21:26.953Z,84.74
2023-11-13T19:24:36.026Z,85.62
2023-11-13T19:27:45.415Z,85.43
2023-11-13T19:30:55.407Z,84.97
2023-11-13T19:34:05.236Z,84.13
2023-11-13T19:37:15.641Z,84.31
2023-11-13T19:40:24.792Z,83.97
2023-11-13T19:43:33.964Z,84.05
2023-11-13T19:46:43.569Z,82.74
2023-11-13T19:49:53.086Z,83.07
2023-11-13T19:53:04.225Z,83.19
2023-11-13T19:56:12.976Z,82.37
2023-11-13T19:59:21.726Z,82.72
2023-11-13T20:02:30.804Z,82.23
2023-11-13T20:05:39.737Z,82.81
2023-11-13T20:08:50.448Z,82.44
2023-11-13T20:12:00.178Z,83.04
2023-11-13T20:15:10.067Z,81.30
2023-11-13T20:18:29.699Z,81.29
2023-11-13T20:21:44.989Z,80.92
2023-11-13T20:24:55.168Z,80.86
2023-11-13T20:28:03.747Z,80.50
2023-11-13T20:31:14.713Z,81.42
2023-11-13T20:34:23.648Z,81.29
2023-11-13T20:37:32.220Z,80.13
2023-11-13T20:40:42.299Z,79.70
2023-11-13T20:43:52.363Z,79.95
2023-11-13T20:47:01.053Z,80.11
2023-11-13T20:50:12.607Z,78.98
2023-11-13T20:53:23.469Z,78.43
2023-11-13T20:56:33.649Z,78.90
2023-11-13T20:59:42.369Z,77.59
2023-11-13T21:02:51.280Z,77.23
2023-11-13T21:06:07.441Z,77.13
2023-11-13T21:09:17.062Z,77.75
2023-11-13T21:12:27.128Z,76.84
2023-11-13T21:15:35.786Z,77.87
2023-11-13T21:18:44.903Z,76.87
2023-11-13T21:21:54.432Z,76.65
2023-11-13T21:25:05.687Z,76.44
2023-11-13T21:28:15.866Z,79.34
2023-11-13T21:31:25.159Z,80.04
2023-11-13T21:34:34.298Z,81.28
2023-11-13T21:37:45.369Z,80.75
2023-11-13T21:40:54.194Z,81.60
2023-11-13T21:44:05.049Z,82.44
2023-11-13T21:47:13.629Z,83.19
2023-11-13T21:50:22.328Z,82.56
2023-11-13T21:53:31.172Z,82.61
2023-11-13T21:56:39.898Z,82.08
2023-11-13T21:59:49.971Z,82.28
2023-11-13T22:02:58.954Z,82.53
2023-11-13T22:06:11.388Z,81.34
2023-11-13T22:09:21.625Z,79.95
2023-11-13T22:12:33.775Z,79.08
2023-11-13T22:15:44.024Z,79.69
2023-11-13T22:18:52.562Z,77.81
2023-11-13T22:22:01.217Z,78.50
2023-11-13T22:25:10.582Z,77.93
2023-11-13T22:28:19.339Z,78.00
2023-11-13T22:31:30.550Z,77.67
2023-11-13T22:34:39.503Z,77.65
2023-11-13T22:37:48.356Z,77.60
2023-11-13T22:40:57.534Z,79.61
2023-11-13T22:44:07.697Z,81.09
2023-11-13T22:47:17.762Z,82.98
2023-11-13T22:50:26.606Z,87.02
2023-11-13T22:53:36.333Z,91.59
2023-11-13T22:56:45.979Z,92.34
2023-11-13T22:59:54.834Z,92.91
2023-11-13T23:03:05.588Z,93.01
2023-11-13T23:06:14.182Z,94.22
2023-11-13T23:09:22.910Z,93.94
2023-11-13T23:12:32.449Z,94.62
2023-11-13T23:15:44.106Z,94.54
2023-11-13T23:18:55.719Z,94.88
2023-11-13T23:22:06.694Z,93.91
2023-11-13T23:25:15.307Z,93.13
2023-11-13T23:28:24.629Z,92.45
2023-11-13T23:31:34.484Z,90.95
2023-11-13T23:34:44.561Z,91.07
2023-11-13T23:37:53.328Z,89.95
2023-11-13T23:41:02.809Z,90.35
2023-11-13T23:44:12.785Z,91.03
2023-11-13T23:47:21.480Z,89.72
2023-11-13T23:50:31.547Z,90.19
2023-11-13T23:53:40.237Z,91.07
2023-11-13T23:56:48.842Z,91.85
2023-11-13T23:59:57.378Z,94.36
